Hackensack, Minnesota
Current Conditions -  °F | °C
As of 3:53 AM on Saturday 29 Nov 2014 (Local Time) from KPWC Reporting Station
Overcast Overcast  
Wind Chill: 13°   Ceiling: 1000
Heat Index: 19°   Visibility: 7mi
Dew Point: 18°   Wind: 5mph
Humidity: 93%   Direction: 140°SE
Pressure: 29.56"   Gusts: NA
Location:  46.93°N, 94.52°W
Report Text: KPWC 290953Z AUTO 14004KT 7SM OVC010 M07/M08 A2956 RMK AO2
Loading
Personal Weather Stations






























Interactive Weather Map New forecast layout! Learn more

10-Day Weather Forecast

Advertisements
Track Severe Weather on mobile